createdAt,value
2023-04-19T00:03:01.262Z,77.64
2023-04-19T00:13:04.525Z,77.77
2023-04-19T00:23:07.715Z,78.45
2023-04-19T00:33:13.162Z,79.02
2023-04-19T00:43:19.936Z,79.69
2023-04-19T00:53:23.018Z,79.66
2023-04-19T01:03:29.610Z,79.72
2023-04-19T01:14:05.480Z,79.75
2023-04-19T01:24:08.607Z,79.39
2023-04-19T01:34:11.660Z,79.53
2023-04-19T01:44:15.069Z,79.74
2023-04-19T01:54:18.388Z,79.86
2023-04-19T02:04:22.304Z,79.57
2023-04-19T02:14:26.077Z,79.64
2023-04-19T02:24:29.760Z,79.50
2023-04-19T02:34:34.790Z,79.85
2023-04-19T02:44:38.090Z,80.31
2023-04-19T02:55:13.158Z,80.37
2023-04-19T03:05:17.234Z,80.62
2023-04-19T03:15:20.859Z,80.22
2023-04-19T03:25:23.964Z,79.94
2023-04-19T03:36:07.180Z,80.39
2023-04-19T03:46:43.681Z,80.54
2023-04-19T03:56:48.145Z,80.44
2023-04-19T04:06:51.881Z,80.51
2023-04-19T04:17:27.764Z,80.41
2023-04-19T04:27:31.556Z,80.98
2023-04-19T04:37:35.750Z,80.75
2023-04-19T04:48:11.692Z,80.70
2023-04-19T04:58:15.040Z,80.77
2023-04-19T05:08:45.195Z,80.52
2023-04-19T05:18:55.683Z,79.84
2023-04-19T05:28:59.915Z,79.81
2023-04-19T05:39:21.326Z,80.06
2023-04-19T05:49:56.548Z,79.77
2023-04-19T06:00:13.546Z,79.35
2023-04-19T06:10:16.650Z,78.54
2023-04-19T06:20:19.869Z,78.31
2023-04-19T06:30:55.742Z,78.56
2023-04-19T06:41:30.380Z,78.04
2023-04-19T06:51:34.015Z,78.13
2023-04-19T07:01:38.432Z,77.94
2023-04-19T07:11:41.730Z,78.26
2023-04-19T07:21:44.895Z,78.64
2023-04-19T07:31:48.278Z,78.89
2023-04-19T07:42:24.727Z,79.35
2023-04-19T07:52:27.850Z,78.82
2023-04-19T08:02:31.273Z,78.35
2023-04-19T08:12:42.703Z,79.02
2023-04-19T08:23:31.810Z,78.90
2023-04-19T08:33:41.140Z,79.09
2023-04-19T08:43:44.319Z,79.55
2023-04-19T08:53:49.782Z,79.10
2023-04-19T09:04:04.922Z,78.97
2023-04-19T09:14:16.540Z,79.29
2023-04-19T09:24:19.718Z,80.00
2023-04-19T09:34:24.190Z,79.86
2023-04-19T09:54:34.325Z,79.57
2023-04-19T10:05:20.460Z,78.66
2023-04-19T10:16:15.497Z,78.87
2023-04-19T10:26:22.410Z,77.87
2023-04-19T10:36:58.066Z,78.08
2023-04-19T10:47:01.221Z,77.03
2023-04-19T10:57:06.446Z,76.38
2023-04-19T11:07:09.763Z,75.77
2023-04-19T11:17:18.111Z,76.14
2023-04-19T11:27:53.788Z,76.65
2023-04-19T11:38:29.022Z,78.04
2023-04-19T11:48:36.320Z,78.03
2023-04-19T11:58:52.166Z,78.45
2023-04-19T12:08:59.848Z,77.22
2023-04-19T12:19:58.396Z,75.93
2023-04-19T12:30:01.935Z,75.38
2023-04-19T12:40:10.194Z,76.29
2023-04-19T12:50:46.124Z,74.93
2023-04-19T13:01:21.402Z,74.19
2023-04-19T13:11:24.606Z,73.51
2023-04-19T13:21:28.194Z,73.02
2023-04-19T13:32:07.845Z,72.73
2023-04-19T13:42:24.539Z,72.98
2023-04-19T13:52:35.511Z,73.82
2023-04-19T14:02:42.314Z,75.07
2023-04-19T14:13:29.681Z,75.93
2023-04-19T14:24:07.878Z,74.44
2023-04-19T14:34:13.858Z,73.23
2023-04-19T14:44:22.632Z,71.95
2023-04-19T14:54:28.548Z,71.67
2023-04-19T15:05:04.696Z,72.68
2023-04-19T15:15:11.206Z,74.04
2023-04-19T15:25:14.714Z,74.95
2023-04-19T15:35:18.004Z,75.26
2023-04-19T15:45:53.416Z,75.22
2023-04-19T15:56:02.369Z,75.50
2023-04-19T16:06:09.353Z,75.68
2023-04-19T16:16:55.599Z,75.82
2023-04-19T16:27:31.433Z,76.24
2023-04-19T16:37:35.424Z,76.67
2023-04-19T16:47:46.457Z,76.97
2023-04-19T17:08:46.084Z,77.36
2023-04-19T17:18:49.158Z,77.55
2023-04-19T17:28:52.248Z,77.35
2023-04-19T17:38:55.287Z,77.52
2023-04-19T17:48:58.522Z,77.59
2023-04-19T17:59:03.897Z,77.88
2023-04-19T18:09:07.799Z,77.85
2023-04-19T18:19:11.057Z,77.89
2023-04-19T18:29:16.084Z,78.06
2023-04-19T18:39:19.430Z,78.55
2023-04-19T18:49:25.808Z,78.86
2023-04-19T18:59:29.010Z,79.47
2023-04-19T19:09:32.044Z,79.53
2023-04-19T19:19:35.581Z,79.39
2023-04-19T19:29:38.914Z,79.16
2023-04-19T19:39:42.009Z,78.99
2023-04-19T19:50:09.706Z,79.30
2023-04-19T20:00:31.913Z,79.34
2023-04-19T20:10:34.203Z,79.38
2023-04-19T20:20:37.587Z,79.50
2023-04-19T20:30:41.231Z,79.48
2023-04-19T20:40:44.745Z,79.84
2023-04-19T20:50:47.786Z,79.48
2023-04-19T21:00:51.254Z,79.48
2023-04-19T21:10:54.346Z,79.24
2023-04-19T21:20:59.076Z,79.77
2023-04-19T21:31:02.734Z,80.14
2023-04-19T21:41:07.412Z,80.33
2023-04-19T21:51:12.853Z,80.45
2023-04-19T22:11:20.252Z,80.65
2023-04-19T22:21:25.492Z,80.91
2023-04-19T22:31:28.806Z,80.90
2023-04-19T22:41:33.484Z,81.06
2023-04-19T22:51:39.700Z,80.67
2023-04-19T23:01:43.168Z,80.12
2023-04-19T23:11:47.379Z,80.34
2023-04-19T23:21:50.455Z,80.31
2023-04-19T23:31:53.653Z,80.37
2023-04-19T23:41:56.790Z,80.64
2023-04-19T23:52:00.124Z,81.03
